createdAt,value
2022-07-25T00:02:27.492Z,20.39
2022-07-25T00:04:55.275Z,20.72
2022-07-25T00:07:23.118Z,20.78
2022-07-25T00:09:50.870Z,20.40
2022-07-25T00:12:19.158Z,20.04
2022-07-25T00:14:48.125Z,19.77
2022-07-25T00:17:16.018Z,19.56
2022-07-25T00:19:43.798Z,19.39
2022-07-25T00:22:11.635Z,19.24
2022-07-25T00:24:39.419Z,19.35
2022-07-25T00:27:07.402Z,19.96
2022-07-25T00:29:36.163Z,20.21
2022-07-25T00:32:05.034Z,20.35
2022-07-25T00:34:32.856Z,20.40
2022-07-25T00:37:00.650Z,20.57
2022-07-25T00:39:28.542Z,21.15
2022-07-25T00:41:56.300Z,20.82
2022-07-25T00:44:27.275Z,20.36
2022-07-25T00:46:56.118Z,20.00
2022-07-25T00:49:25.149Z,19.71
2022-07-25T00:51:54.679Z,19.49
2022-07-25T00:54:23.138Z,19.31
2022-07-25T00:56:51.708Z,19.13
2022-07-25T00:59:19.592Z,19.20
2022-07-25T01:01:48.875Z,20.29
2022-07-25T01:04:17.347Z,21.42
2022-07-25T01:06:45.234Z,21.88
2022-07-25T01:09:13.481Z,21.24
2022-07-25T01:11:41.255Z,20.61
2022-07-25T01:14:09.368Z,20.16
2022-07-25T01:16:37.575Z,19.84
2022-07-25T01:19:05.868Z,19.57
2022-07-25T01:21:33.595Z,19.36
2022-07-25T01:24:01.355Z,19.38
2022-07-25T01:26:30.657Z,20.49
2022-07-25T01:28:58.414Z,21.73
2022-07-25T01:31:26.372Z,21.99
2022-07-25T01:33:54.194Z,21.28
2022-07-25T01:36:21.967Z,20.67
2022-07-25T01:38:49.738Z,20.25
2022-07-25T01:41:22.636Z,19.91
2022-07-25T01:43:50.585Z,19.64
2022-07-25T01:46:18.397Z,19.42
2022-07-25T01:48:46.357Z,19.22
2022-07-25T01:51:14.512Z,19.29
2022-07-25T01:53:42.285Z,20.47
2022-07-25T01:56:12.405Z,21.83
2022-07-25T01:58:40.318Z,22.36
2022-07-25T02:01:08.205Z,21.61
2022-07-25T02:03:36.103Z,20.92
2022-07-25T02:06:07.483Z,20.42
2022-07-25T02:08:35.999Z,20.03
2022-07-25T02:11:03.840Z,19.73
2022-07-25T02:13:31.700Z,19.46
2022-07-25T02:16:00.141Z,19.22
2022-07-25T02:18:27.957Z,19.45
2022-07-25T02:20:56.136Z,20.94
2022-07-25T02:23:23.893Z,21.88
2022-07-25T02:25:51.934Z,21.30
2022-07-25T02:28:19.946Z,20.59
2022-07-25T02:30:47.742Z,20.07
2022-07-25T02:33:15.581Z,19.68
2022-07-25T02:35:43.665Z,19.36
2022-07-25T02:38:11.563Z,19.42
2022-07-25T02:40:39.332Z,20.77
2022-07-25T02:43:07.066Z,21.57
2022-07-25T02:45:35.192Z,20.96
2022-07-25T02:48:03.347Z,20.30
2022-07-25T02:50:31.228Z,19.81
2022-07-25T02:52:59.057Z,19.47
2022-07-25T02:55:27.063Z,19.17
2022-07-25T02:57:54.978Z,19.19
2022-07-25T03:00:24.098Z,20.32
2022-07-25T03:02:51.923Z,21.51
2022-07-25T03:05:19.733Z,21.87
2022-07-25T03:07:47.506Z,21.13
2022-07-25T03:10:15.496Z,20.46
2022-07-25T03:12:44.401Z,19.97
2022-07-25T03:15:13.240Z,19.59
2022-07-25T03:17:42.259Z,19.29
2022-07-25T03:20:10.393Z,19.21
2022-07-25T03:22:38.309Z,19.70
2022-07-25T03:25:06.706Z,20.40
2022-07-25T03:27:43.928Z,21.49
2022-07-25T03:30:12.344Z,21.61
2022-07-25T03:32:41.115Z,20.87
2022-07-25T03:35:09.530Z,20.25
2022-07-25T03:37:37.388Z,19.80
2022-07-25T03:40:06.510Z,19.46
2022-07-25T03:42:35.336Z,19.19
2022-07-25T03:45:05.223Z,19.11
2022-07-25T03:47:33.031Z,19.49
2022-07-25T03:50:00.767Z,19.86
2022-07-25T03:52:28.491Z,20.17
2022-07-25T03:54:56.267Z,20.40
2022-07-25T03:57:24.059Z,20.68
2022-07-25T03:59:51.752Z,21.38
2022-07-25T04:02:19.489Z,22.08
2022-07-25T04:04:47.310Z,21.58
2022-07-25T04:07:15.150Z,21.06
2022-07-25T04:09:42.836Z,20.74
2022-07-25T04:12:11.013Z,20.54
2022-07-25T04:14:38.753Z,20.41
2022-07-25T04:17:06.816Z,20.32
2022-07-25T04:19:35.050Z,20.26
2022-07-25T04:22:03.466Z,20.22
2022-07-25T04:24:31.490Z,20.20
2022-07-25T04:26:59.210Z,20.21
2022-07-25T04:29:26.936Z,20.25
2022-07-25T04:31:54.767Z,20.29
2022-07-25T04:34:22.526Z,20.34
2022-07-25T04:36:50.523Z,20.40
2022-07-25T04:39:18.243Z,20.48
2022-07-25T04:41:46.209Z,20.56
2022-07-25T04:44:14.552Z,20.65
2022-07-25T04:46:42.357Z,20.78
2022-07-25T04:49:10.175Z,20.93
2022-07-25T04:51:38.160Z,21.06
2022-07-25T04:54:06.839Z,21.18
2022-07-25T04:56:35.609Z,21.28
2022-07-25T04:59:06.360Z,21.39
2022-07-25T05:01:35.732Z,21.50
2022-07-25T05:04:03.956Z,21.65
2022-07-25T05:06:32.092Z,21.77
2022-07-25T05:08:59.930Z,21.91
2022-07-25T05:11:27.720Z,22.04
2022-07-25T05:13:56.518Z,22.14
2022-07-25T05:16:24.312Z,22.24
2022-07-25T05:18:52.133Z,22.32
2022-07-25T05:21:20.007Z,22.40
2022-07-25T05:23:47.776Z,22.48
2022-07-25T05:26:15.622Z,22.54
2022-07-25T05:28:43.625Z,22.60
2022-07-25T05:31:11.416Z,22.65
2022-07-25T05:33:39.346Z,22.74
2022-07-25T05:36:08.827Z,22.86
2022-07-25T05:38:36.606Z,22.97
2022-07-25T05:41:05.153Z,23.06
2022-07-25T05:43:32.987Z,23.14
2022-07-25T05:46:03.120Z,23.25
2022-07-25T05:48:32.038Z,23.36
2022-07-25T05:50:59.999Z,23.49
2022-07-25T05:53:27.744Z,23.63
2022-07-25T05:55:55.513Z,23.78
2022-07-25T05:58:29.099Z,23.90
2022-07-25T06:00:58.611Z,24.01
2022-07-25T06:03:26.590Z,24.15
2022-07-25T06:05:56.743Z,24.31
2022-07-25T06:08:24.932Z,24.47
2022-07-25T06:10:53.172Z,24.61
2022-07-25T06:13:21.110Z,24.75
2022-07-25T06:15:51.562Z,24.84
2022-07-25T06:18:19.565Z,24.90
2022-07-25T06:20:47.559Z,24.99
2022-07-25T06:23:16.500Z,25.14
2022-07-25T06:25:50.102Z,25.35
2022-07-25T06:28:19.007Z,25.60
2022-07-25T06:30:48.289Z,25.82
2022-07-25T06:33:16.156Z,26.08
2022-07-25T06:35:43.923Z,26.41
2022-07-25T06:38:11.742Z,26.70
2022-07-25T06:40:39.491Z,26.88
2022-07-25T06:43:07.996Z,27.07
2022-07-25T06:45:36.089Z,27.28
2022-07-25T06:48:04.213Z,27.44
2022-07-25T06:50:32.442Z,27.62
2022-07-25T06:53:00.157Z,27.81
2022-07-25T06:55:27.905Z,27.94
2022-07-25T06:57:56.033Z,28.00
2022-07-25T07:00:23.815Z,28.10
2022-07-25T07:02:56.448Z,28.26
2022-07-25T07:05:29.102Z,28.38
2022-07-25T07:07:57.910Z,28.46
2022-07-25T07:10:27.023Z,28.50
2022-07-25T07:13:14.288Z,28.52
2022-07-25T07:15:50.288Z,28.60
2022-07-25T07:18:19.990Z,28.72
2022-07-25T07:20:48.626Z,28.89
2022-07-25T07:23:17.855Z,29.09
2022-07-25T07:25:47.218Z,29.20
2022-07-25T07:28:16.413Z,29.29
2022-07-25T07:31:14.681Z,29.45
2022-07-25T07:33:36.074Z,29.70
2022-07-25T07:36:04.390Z,29.89
2022-07-25T07:38:32.278Z,30.01
2022-07-25T07:41:00.080Z,30.11
2022-07-25T07:43:30.439Z,30.23
2022-07-25T07:46:01.373Z,30.38
2022-07-25T07:48:33.192Z,30.51
2022-07-25T07:51:02.674Z,30.66
2022-07-25T07:53:49.619Z,30.78
2022-07-25T07:56:19.355Z,30.86
2022-07-25T07:58:47.383Z,30.94
2022-07-25T08:01:15.267Z,31.04
2022-07-25T08:03:43.256Z,31.17
2022-07-25T08:06:11.129Z,31.33
2022-07-25T08:08:39.712Z,31.51
2022-07-25T08:11:07.584Z,31.74
2022-07-25T08:13:38.292Z,31.88
2022-07-25T08:16:07.080Z,31.95
2022-07-25T08:18:34.977Z,31.99
2022-07-25T08:21:05.597Z,32.05
2022-07-25T08:23:39.089Z,32.15
2022-07-25T08:26:07.682Z,32.31
2022-07-25T08:28:35.996Z,32.36
2022-07-25T08:31:04.128Z,32.38
2022-07-25T08:33:32.299Z,32.35
2022-07-25T08:36:01.533Z,32.30
2022-07-25T08:38:29.856Z,32.28
2022-07-25T08:40:58.927Z,32.28
2022-07-25T08:43:27.347Z,32.37
2022-07-25T08:45:55.995Z,32.53
2022-07-25T08:48:26.077Z,32.71
2022-07-25T08:50:57.285Z,32.87
2022-07-25T08:53:34.862Z,33.11
2022-07-25T08:56:16.222Z,33.36
2022-07-25T08:58:49.671Z,33.50
2022-07-25T09:01:17.710Z,33.62
2022-07-25T09:03:45.559Z,33.78
2022-07-25T09:06:22.239Z,33.94
2022-07-25T09:08:59.681Z,34.07
2022-07-25T09:11:36.808Z,34.21
2022-07-25T09:14:14.762Z,34.31
2022-07-25T09:16:45.166Z,34.37
2022-07-25T09:19:19.631Z,34.40
2022-07-25T09:22:02.507Z,34.37
2022-07-25T09:24:31.025Z,34.40
2022-07-25T09:27:08.606Z,34.46
2022-07-25T09:29:39.505Z,34.53
2022-07-25T09:32:33.637Z,34.61
2022-07-25T09:35:01.604Z,34.71
2022-07-25T09:37:29.399Z,34.79
2022-07-25T09:39:59.788Z,34.83
2022-07-25T09:42:36.279Z,34.89
2022-07-25T09:45:12.639Z,34.93
2022-07-25T09:47:51.683Z,34.97
2022-07-25T09:50:21.643Z,35.00
2022-07-25T09:52:55.539Z,34.95
2022-07-25T09:55:24.345Z,34.91
2022-07-25T09:57:55.197Z,34.89
2022-07-25T10:00:27.712Z,34.89
2022-07-25T10:02:56.066Z,34.81
2022-07-25T10:05:23.809Z,34.77
2022-07-25T10:07:55.005Z,34.80
2022-07-25T10:10:32.358Z,34.82
2022-07-25T10:13:32.029Z,34.85
2022-07-25T10:16:00.326Z,34.82
2022-07-25T10:18:31.267Z,34.82
2022-07-25T10:21:26.153Z,34.82
2022-07-25T10:24:14.318Z,34.80
2022-07-25T10:26:53.212Z,34.84
2022-07-25T10:29:21.675Z,34.92
2022-07-25T10:31:52.140Z,35.02
2022-07-25T10:34:31.893Z,35.13
2022-07-25T10:37:12.172Z,35.22
2022-07-25T10:39:44.854Z,35.30
2022-07-25T10:42:18.132Z,35.40
2022-07-25T10:44:49.589Z,35.49
2022-07-25T10:47:18.295Z,35.62
2022-07-25T10:50:13.848Z,35.67
2022-07-25T10:52:46.207Z,35.68
2022-07-25T10:55:24.111Z,35.69
2022-07-25T10:58:18.049Z,35.70
2022-07-25T11:00:46.539Z,35.67
2022-07-25T11:03:18.149Z,35.64
2022-07-25T11:05:48.520Z,35.64
2022-07-25T11:08:22.424Z,35.64
2022-07-25T11:10:52.656Z,35.67
2022-07-25T11:13:20.886Z,35.72
2022-07-25T11:15:48.825Z,35.72
2022-07-25T11:18:18.653Z,35.74
2022-07-25T11:20:46.528Z,35.73
2022-07-25T11:23:21.637Z,35.63
2022-07-25T11:25:51.592Z,35.53
2022-07-25T11:28:19.453Z,35.41
2022-07-25T11:30:47.652Z,35.27
2022-07-25T11:33:17.638Z,35.17
2022-07-25T11:35:48.701Z,35.12
2022-07-25T11:38:17.098Z,35.14
2022-07-25T11:40:46.730Z,35.16
2022-07-25T11:43:22.551Z,35.17
2022-07-25T11:46:18.629Z,35.19
2022-07-25T11:48:48.023Z,35.22
2022-07-25T11:51:19.431Z,35.19
2022-07-25T11:53:50.977Z,35.17
2022-07-25T11:59:10.557Z,35.17
2022-07-25T12:01:42.224Z,35.17
2022-07-25T12:04:17.835Z,35.17
2022-07-25T12:06:48.757Z,35.18
2022-07-25T12:09:22.042Z,35.19
2022-07-25T12:11:50.154Z,35.17
2022-07-25T12:14:18.382Z,35.15
2022-07-25T12:16:47.186Z,35.11
2022-07-25T12:19:21.715Z,35.07
2022-07-25T12:21:49.526Z,35.08
2022-07-25T12:24:17.334Z,35.12
2022-07-25T12:26:45.225Z,35.19
2022-07-25T12:29:13.023Z,35.25
2022-07-25T12:31:40.771Z,35.22
2022-07-25T12:34:08.525Z,35.17
2022-07-25T12:36:41.329Z,35.16
2022-07-25T12:39:09.830Z,35.14
2022-07-25T12:41:37.948Z,35.15
2022-07-25T12:44:05.762Z,35.14
2022-07-25T12:46:33.645Z,35.13
2022-07-25T12:49:02.780Z,35.14
2022-07-25T12:51:30.821Z,35.14
2022-07-25T12:53:58.707Z,35.11
2022-07-25T12:56:26.412Z,35.07
2022-07-25T12:58:54.919Z,35.05
2022-07-25T13:01:22.742Z,35.05
2022-07-25T13:03:50.544Z,35.04
2022-07-25T13:06:20.865Z,35.03
2022-07-25T13:08:48.804Z,35.01
2022-07-25T13:11:16.919Z,35.00
2022-07-25T13:13:44.803Z,35.03
2022-07-25T13:16:12.574Z,35.04
2022-07-25T13:18:40.434Z,35.01
2022-07-25T13:21:08.163Z,34.99
2022-07-25T13:23:36.126Z,34.98
2022-07-25T13:26:04.010Z,34.92
2022-07-25T13:28:31.834Z,34.84
2022-07-25T13:31:01.882Z,34.79
2022-07-25T13:33:30.879Z,34.75
2022-07-25T13:35:58.884Z,34.70
2022-07-25T13:38:26.930Z,34.67
2022-07-25T13:40:58.789Z,34.63
2022-07-25T13:43:26.883Z,34.52
2022-07-25T13:45:54.832Z,34.41
2022-07-25T13:48:31.154Z,34.31
2022-07-25T13:50:59.682Z,34.19
2022-07-25T13:53:30.213Z,34.11
2022-07-25T13:55:59.988Z,34.02
2022-07-25T13:58:28.593Z,33.95
2022-07-25T14:00:56.615Z,33.85
2022-07-25T14:03:24.438Z,33.76
2022-07-25T14:05:52.252Z,33.66
2022-07-25T14:08:20.315Z,33.58
2022-07-25T14:10:48.122Z,33.51
2022-07-25T14:13:15.983Z,33.46
2022-07-25T14:15:45.040Z,33.39
2022-07-25T14:18:12.913Z,33.33
2022-07-25T14:20:40.651Z,33.28
2022-07-25T14:23:08.421Z,33.24
2022-07-25T14:25:36.307Z,33.18
2022-07-25T14:28:04.240Z,33.11
2022-07-25T14:30:32.085Z,33.05
2022-07-25T14:33:00.060Z,33.00
2022-07-25T14:35:32.605Z,32.96
2022-07-25T14:38:00.912Z,32.92
2022-07-25T14:40:28.664Z,32.89
2022-07-25T14:42:56.522Z,32.87
2022-07-25T14:45:24.315Z,32.84
2022-07-25T14:47:52.111Z,32.82
2022-07-25T14:50:20.022Z,32.79
2022-07-25T14:52:47.711Z,32.76
2022-07-25T14:55:15.549Z,32.75
2022-07-25T14:57:45.032Z,32.73
2022-07-25T15:00:13.621Z,32.71
2022-07-25T15:02:41.432Z,32.70
2022-07-25T15:05:09.966Z,32.69
2022-07-25T15:07:38.626Z,32.70
2022-07-25T15:10:06.819Z,32.71
2022-07-25T15:12:34.860Z,32.72
2022-07-25T15:15:02.690Z,32.72
2022-07-25T15:17:30.766Z,32.72
2022-07-25T15:19:58.735Z,32.73
2022-07-25T15:22:26.513Z,32.74
2022-07-25T15:27:42.139Z,32.73
2022-07-25T15:30:11.010Z,32.74
2022-07-25T15:32:40.233Z,32.73
2022-07-25T15:35:11.664Z,32.72
2022-07-25T15:37:39.628Z,32.72
2022-07-25T15:40:08.177Z,32.71
2022-07-25T15:42:38.276Z,32.72
2022-07-25T15:45:31.888Z,32.72
2022-07-25T15:47:56.721Z,32.72
2022-07-25T15:50:25.902Z,32.72
2022-07-25T15:52:56.193Z,32.72
2022-07-25T15:55:23.936Z,32.72
2022-07-25T15:57:54.087Z,32.71
2022-07-25T16:00:24.854Z,32.70
2022-07-25T16:02:57.700Z,32.69
2022-07-25T16:05:25.698Z,32.67
2022-07-25T16:07:53.540Z,32.66
2022-07-25T16:10:21.337Z,32.63
2022-07-25T16:12:49.242Z,32.62
2022-07-25T16:15:17.124Z,32.62
2022-07-25T16:17:44.971Z,32.63
2022-07-25T16:20:14.836Z,32.62
2022-07-25T16:22:42.674Z,32.60
2022-07-25T16:25:10.545Z,32.58
2022-07-25T16:27:38.445Z,32.57
2022-07-25T16:30:07.681Z,32.55
2022-07-25T16:32:35.941Z,32.53
2022-07-25T16:35:04.201Z,32.51
2022-07-25T16:37:32.028Z,32.47
2022-07-25T16:40:03.294Z,32.45
2022-07-25T16:42:31.174Z,32.42
2022-07-25T16:44:59.169Z,32.39
2022-07-25T16:47:27.358Z,32.37
2022-07-25T16:49:55.298Z,32.36
2022-07-25T16:52:24.658Z,32.32
2022-07-25T16:54:54.159Z,32.29
2022-07-25T16:57:23.809Z,32.25
2022-07-25T16:59:53.726Z,32.20
2022-07-25T17:02:27.506Z,32.14
2022-07-25T17:05:00.594Z,32.08
2022-07-25T17:07:28.567Z,32.02
2022-07-25T17:09:56.376Z,31.99
2022-07-25T17:12:24.229Z,31.95
2022-07-25T17:14:51.917Z,31.92
2022-07-25T17:17:19.737Z,31.88
2022-07-25T17:19:47.502Z,31.83
2022-07-25T17:22:15.597Z,31.79
2022-07-25T17:24:43.510Z,31.74
2022-07-25T17:27:11.447Z,31.69
2022-07-25T17:29:42.679Z,31.64
2022-07-25T17:32:10.495Z,31.62
2022-07-25T17:34:38.440Z,31.59
2022-07-25T17:37:07.431Z,31.56
2022-07-25T17:39:35.445Z,31.53
2022-07-25T17:42:07.360Z,31.51
2022-07-25T17:44:35.380Z,31.49
2022-07-25T17:47:04.213Z,31.46
2022-07-25T17:49:32.024Z,31.44
2022-07-25T17:51:59.802Z,31.42
2022-07-25T17:54:27.489Z,31.40
2022-07-25T17:56:55.237Z,31.38
2022-07-25T17:59:23.214Z,31.35
2022-07-25T18:01:51.114Z,31.33
2022-07-25T18:04:18.926Z,31.30
2022-07-25T18:06:46.894Z,31.25
2022-07-25T18:09:20.363Z,31.21
2022-07-25T18:11:48.330Z,31.17
2022-07-25T18:14:16.385Z,31.12
2022-07-25T18:16:45.508Z,31.05
2022-07-25T18:19:14.091Z,31.00
2022-07-25T18:21:41.969Z,30.93
2022-07-25T18:24:10.377Z,30.87
2022-07-25T18:26:39.888Z,30.81
2022-07-25T18:29:08.659Z,30.75
2022-07-25T18:31:36.929Z,30.68
2022-07-25T18:34:05.227Z,30.61
2022-07-25T18:36:33.332Z,30.55
2022-07-25T18:39:01.075Z,30.49
2022-07-25T18:41:30.310Z,30.43
2022-07-25T18:43:58.833Z,30.37
2022-07-25T18:46:30.435Z,30.31
2022-07-25T18:48:59.775Z,30.25
2022-07-25T18:51:28.077Z,30.19
2022-07-25T18:53:56.407Z,30.12
2022-07-25T18:56:24.209Z,30.06
2022-07-25T18:58:52.129Z,29.99
2022-07-25T19:01:20.102Z,29.92
2022-07-25T19:03:48.053Z,29.85
2022-07-25T19:06:16.344Z,29.78
2022-07-25T19:08:44.257Z,29.71
2022-07-25T19:11:12.185Z,29.64
2022-07-25T19:13:50.924Z,29.57
2022-07-25T19:16:19.972Z,29.50
2022-07-25T19:18:48.133Z,29.43
2022-07-25T19:21:16.826Z,29.36
2022-07-25T19:23:50.436Z,29.29
2022-07-25T19:26:20.307Z,29.22
2022-07-25T19:28:50.164Z,29.14
2022-07-25T19:31:18.515Z,29.07
2022-07-25T19:33:46.444Z,29.01
2022-07-25T19:36:14.421Z,28.93
2022-07-25T19:38:42.291Z,28.87
2022-07-25T19:41:10.237Z,28.80
2022-07-25T19:43:38.054Z,28.73
2022-07-25T19:46:06.463Z,28.66
2022-07-25T19:48:34.530Z,28.60
2022-07-25T19:51:05.142Z,28.52
2022-07-25T19:53:33.058Z,28.45
2022-07-25T19:56:01.442Z,28.39
2022-07-25T19:58:29.366Z,28.32
2022-07-25T20:00:57.235Z,28.26
2022-07-25T20:03:25.027Z,28.20
2022-07-25T20:05:52.871Z,28.14
2022-07-25T20:08:20.652Z,28.08
2022-07-25T20:10:49.084Z,28.01
2022-07-25T20:13:17.139Z,27.96
2022-07-25T20:15:45.042Z,27.90
2022-07-25T20:18:17.393Z,27.85
2022-07-25T20:20:47.814Z,27.80
2022-07-25T20:23:15.762Z,27.74
2022-07-25T20:25:43.613Z,27.69
2022-07-25T20:28:11.580Z,27.64
2022-07-25T20:30:39.884Z,27.59
2022-07-25T20:33:09.555Z,27.53
2022-07-25T20:35:38.234Z,27.47
2022-07-25T20:38:09.179Z,27.42
2022-07-25T20:40:46.284Z,27.36
2022-07-25T20:43:16.183Z,27.30
2022-07-25T20:45:44.483Z,27.24
2022-07-25T20:48:12.759Z,27.18
2022-07-25T20:50:40.784Z,27.12
2022-07-25T20:53:09.620Z,27.06
2022-07-25T20:55:37.588Z,27.01
2022-07-25T20:58:05.665Z,26.96
2022-07-25T21:00:33.718Z,26.92
2022-07-25T21:03:01.868Z,26.88
2022-07-25T21:05:29.780Z,26.84
2022-07-25T21:07:57.779Z,26.80
2022-07-25T21:10:26.305Z,26.76
2022-07-25T21:12:55.925Z,26.72
2022-07-25T21:15:24.451Z,26.68
2022-07-25T21:17:52.312Z,26.64
2022-07-25T21:20:20.187Z,26.61
2022-07-25T21:22:48.245Z,26.57
2022-07-25T21:25:16.119Z,26.54
2022-07-25T21:27:43.900Z,26.52
2022-07-25T21:30:12.276Z,26.49
2022-07-25T21:32:41.291Z,26.46
2022-07-25T21:35:09.525Z,26.41
2022-07-25T21:37:37.299Z,26.37
2022-07-25T21:40:05.932Z,26.34
2022-07-25T21:42:33.738Z,26.31
2022-07-25T21:45:01.558Z,26.25
2022-07-25T21:47:29.283Z,26.21
2022-07-25T21:50:19.209Z,26.16
2022-07-25T21:52:53.376Z,26.12
2022-07-25T21:55:21.582Z,26.07
2022-07-25T21:57:51.359Z,26.02
2022-07-25T22:00:20.015Z,25.98
2022-07-25T22:02:48.201Z,25.93
2022-07-25T22:05:18.651Z,25.89
2022-07-25T22:08:07.328Z,25.85
2022-07-25T22:10:35.248Z,25.80
2022-07-25T22:13:03.048Z,25.74
2022-07-25T22:15:31.733Z,25.66
2022-07-25T22:17:59.489Z,25.58
2022-07-25T22:20:27.420Z,25.51
2022-07-25T22:22:55.136Z,25.46
2022-07-25T22:25:23.009Z,25.41
2022-07-25T22:27:50.875Z,25.37
2022-07-25T22:30:19.640Z,25.32
2022-07-25T22:32:49.326Z,25.29
2022-07-25T22:35:17.635Z,25.27
2022-07-25T22:37:46.255Z,25.28
2022-07-25T22:40:14.773Z,25.28
2022-07-25T22:42:42.638Z,25.28
2022-07-25T22:45:11.179Z,25.27
2022-07-25T22:47:39.048Z,25.26
2022-07-25T22:50:08.288Z,25.26
2022-07-25T22:52:36.059Z,25.26
2022-07-25T22:55:04.277Z,25.26
2022-07-25T22:57:36.797Z,25.27
2022-07-25T23:00:08.678Z,25.27
2022-07-25T23:02:37.128Z,25.27
2022-07-25T23:05:07.030Z,25.27
2022-07-25T23:07:35.371Z,25.26
2022-07-25T23:10:04.764Z,25.26
2022-07-25T23:12:32.496Z,25.26
2022-07-25T23:15:00.376Z,25.28
2022-07-25T23:17:28.111Z,25.29
2022-07-25T23:19:56.494Z,25.30
2022-07-25T23:22:26.679Z,25.30
2022-07-25T23:24:56.192Z,25.28
2022-07-25T23:27:24.888Z,25.25
2022-07-25T23:29:53.246Z,25.24
2022-07-25T23:32:21.545Z,25.23
2022-07-25T23:34:49.375Z,25.21
2022-07-25T23:37:17.125Z,25.19
2022-07-25T23:39:45.087Z,25.16
2022-07-25T23:42:12.856Z,25.14
2022-07-25T23:44:42.201Z,25.12
2022-07-25T23:47:12.262Z,25.11
2022-07-25T23:49:40.553Z,25.10
2022-07-25T23:52:08.624Z,25.09
2022-07-25T23:54:38.269Z,25.08
2022-07-25T23:57:07.387Z,25.08
2022-07-25T23:59:35.886Z,25.07
